Time;durP1;ratioP1;P1;durP2;ratioP2;P2;SDS_P1;SDS_P2;PMS_P1;PMS_P2;Temp;Humidity;BMP_temperature;BMP_pressure;BME280_temperature;BME280_humidity;BME280_pressure;Samples;Min_cycle;Max_cycle;Signal;HPM_P1;HPM_P2
2021/10/16 00:02:14;;;;;;;0.95;0.93;;;;;;;13.88;64.07;100950.44;4937867;29;20047;-74
2021/10/16 00:04:40;;;;;;;1.50;1.40;;;;;;;13.82;64.00;100947.97;4941553;29;20035;-73
2021/10/16 00:07:08;;;;;;;0.90;0.90;;;;;;;13.77;64.01;100940.56;4933488;29;20043;-74
2021/10/16 00:09:34;;;;;;;3.55;1.35;;;;;;;13.76;64.00;100942.47;4926058;29;20055;-74
2021/10/16 00:12:09;;;;;;;1.17;1.02;;;;;;;13.74;63.85;100938.34;4929307;29;20117;-74
2021/10/16 00:14:37;;;;;;;1.15;0.82;;;;;;;13.69;63.92;100939.16;4948004;29;20112;-73
2021/10/16 00:17:03;;;;;;;2.45;0.90;;;;;;;13.70;64.04;100938.09;4930731;29;20027;-73
2021/10/16 00:19:31;;;;;;;0.50;0.50;;;;;;;13.74;64.29;100943.84;4931406;29;20123;-73
2021/10/16 00:21:57;;;;;;;0.88;0.88;;;;;;;13.77;63.91;100941.38;4911890;29;20046;-75
2021/10/16 00:24:23;;;;;;;1.05;1.02;;;;;;;13.79;64.63;100957.59;4902638;29;20126;-73
2021/10/16 00:27:13;;;;;;;0.80;0.80;;;;;;;13.77;64.21;100948.81;4922160;29;20122;-77
2021/10/16 00:29:38;;;;;;;0.85;0.85;;;;;;;13.72;64.32;100929.56;4933020;29;20027;-71
2021/10/16 00:32:04;;;;;;;3.33;1.17;;;;;;;13.73;64.54;100932.03;4924210;29;20024;-71
2021/10/16 00:34:29;;;;;;;2.65;1.00;;;;;;;13.73;64.35;100934.78;4943287;29;20039;-78
2021/10/16 00:36:58;;;;;;;0.70;0.70;;;;;;;13.80;64.57;100942.75;4910272;29;20441;-73
2021/10/16 00:39:23;;;;;;;0.80;0.70;;;;;;;13.81;64.57;100949.06;4932803;29;20082;-74
2021/10/16 00:41:49;;;;;;;0.47;0.47;;;;;;;13.76;64.09;100934.22;4927159;29;20548;-74
2021/10/16 00:44:23;;;;;;;0.60;0.60;;;;;;;13.78;64.34;100945.78;4919603;29;20032;-74
2021/10/16 00:46:58;;;;;;;0.45;0.45;;;;;;;13.83;64.54;100941.38;4938905;29;20659;-75
2021/10/16 00:49:27;;;;;;;0.63;0.35;;;;;;;13.75;64.46;100934.50;4926836;29;20117;-74
2021/10/16 00:52:02;;;;;;;0.43;0.43;;;;;;;13.85;64.76;100941.94;4928377;29;20715;-75
2021/10/16 00:54:28;;;;;;;1.13;0.38;;;;;;;13.81;64.29;100933.41;4921960;29;20118;-77
2021/10/16 00:56:55;;;;;;;0.50;0.50;;;;;;;13.83;64.70;100930.38;4918571;29;20051;-76
2021/10/16 00:59:20;;;;;;;0.73;0.57;;;;;;;13.87;64.12;100936.97;4938836;29;20103;-78
2021/10/16 01:01:47;;;;;;;0.30;0.30;;;;;;;13.86;64.17;100938.09;4943417;29;20392;-77
2021/10/16 01:04:13;;;;;;;0.43;0.43;;;;;;;13.86;64.69;100936.16;4924606;29;20024;-77
2021/10/16 01:06:46;;;;;;;2.17;0.30;;;;;;;13.83;64.59;100925.72;4935444;29;20031;-77
2021/10/16 01:09:13;;;;;;;0.55;0.40;;;;;;;13.71;64.98;100915.00;4938028;29;20031;-77
2021/10/16 01:12:05;;;;;;;0.35;0.20;;;;;;;13.90;64.19;100925.41;4941607;29;20039;-77
2021/10/16 01:14:35;;;;;;;0.60;0.30;;;;;;;13.85;64.55;100922.69;4921329;29;20485;-77
2021/10/16 01:17:03;;;;;;;3.03;0.40;;;;;;;13.95;64.92;100933.69;4922792;29;20379;-77
2021/10/16 01:19:34;;;;;;;0.30;0.30;;;;;;;13.98;64.70;100927.63;4918033;29;20491;-76
2021/10/16 01:22:01;;;;;;;0.47;0.30;;;;;;;14.02;64.47;100931.47;4911277;29;20032;-78
2021/10/16 01:24:29;;;;;;;0.20;0.20;;;;;;;14.00;64.66;100914.41;4922729;29;20032;-76
2021/10/16 01:26:56;;;;;;;0.40;0.40;;;;;;;14.10;64.43;100924.59;4919459;29;20111;-76
2021/10/16 01:29:24;;;;;;;0.20;0.20;;;;;;;14.11;64.21;100929.81;4916230;29;20016;-79
2021/10/16 01:31:55;;;;;;;0.10;0.10;;;;;;;14.16;64.44;100922.66;4932811;29;20031;-77
2021/10/16 01:34:22;;;;;;;0.22;0.13;;;;;;;14.18;64.32;100920.44;4941515;29;20032;-77
2021/10/16 01:36:49;;;;;;;0.20;0.20;;;;;;;14.18;64.61;100917.69;4915037;29;20086;-77
2021/10/16 01:39:22;;;;;;;0.40;0.30;;;;;;;14.25;64.25;100915.47;4929191;29;20501;-71
2021/10/16 01:41:48;;;;;;;1.90;0.28;;;;;;;14.18;64.18;100899.28;4923814;29;20462;-72
2021/10/16 01:44:14;;;;;;;0.40;0.35;;;;;;;14.29;64.41;100911.06;4934613;29;20038;-78
2021/10/16 01:46:43;;;;;;;0.47;0.40;;;;;;;14.28;63.85;100903.91;4905525;29;20462;-79
2021/10/16 01:49:19;;;;;;;0.20;0.20;;;;;;;14.34;64.13;100911.06;4920759;29;20482;-79
2021/10/16 01:51:55;;;;;;;0.20;0.20;;;;;;;14.35;64.06;100898.94;4923829;29;20053;-79
2021/10/16 01:54:21;;;;;;;0.30;0.30;;;;;;;14.23;63.79;100879.19;4927209;29;20385;-79
2021/10/16 01:56:49;;;;;;;0.22;0.20;;;;;;;14.30;64.16;100887.97;4921910;29;20088;-79
2021/10/16 01:59:21;;;;;;;0.70;0.20;;;;;;;14.32;64.32;100889.34;4928315;29;20036;-75
2021/10/16 02:01:56;;;;;;;0.20;0.10;;;;;;;14.39;64.13;100902.78;4923636;29;20039;-74
2021/10/16 02:04:22;;;;;;;0.63;0.30;;;;;;;14.33;64.32;100895.66;4933438;29;21257;-74
2021/10/16 02:06:51;;;;;;;0.28;0.20;;;;;;;14.37;63.69;100895.91;4932993;29;20023;-81
2021/10/16 02:09:17;;;;;;;0.30;0.20;;;;;;;14.38;63.70;100889.31;4918356;29;20431;-74
2021/10/16 02:11:42;;;;;;;0.35;0.30;;;;;;;14.37;63.64;100888.50;4939904;29;20030;-75
2021/10/16 02:14:11;;;;;;;0.20;0.20;;;;;;;14.35;63.84;100871.41;4937613;29;20032;-74
2021/10/16 02:16:36;;;;;;;0.20;0.20;;;;;;;14.35;64.46;100870.59;4918015;29;20027;-75
2021/10/16 02:19:03;;;;;;;0.20;0.20;;;;;;;14.29;63.93;100867.03;4900294;29;20058;-74
2021/10/16 02:21:29;;;;;;;0.52;0.30;;;;;;;14.29;63.90;100861.53;4937897;29;20078;-74
2021/10/16 02:23:55;;;;;;;0.45;0.30;;;;;;;14.39;63.90;100872.50;4919832;29;20459;-76
2021/10/16 02:26:25;;;;;;;0.60;0.20;;;;;;;14.35;63.96;100859.59;4935267;29;20061;-74
2021/10/16 02:28:52;;;;;;;0.35;0.30;;;;;;;14.41;64.05;100859.31;4906218;29;20023;-75
2021/10/16 02:31:25;;;;;;;0.47;0.47;;;;;;;14.36;64.58;100856.56;4903559;29;20039;-74
2021/10/16 02:33:51;;;;;;;0.60;0.60;;;;;;;14.40;64.14;100856.84;4919364;29;20059;-74
2021/10/16 02:36:19;;;;;;;0.50;0.50;;;;;;;14.35;64.37;100849.41;4915444;29;20038;-74
2021/10/16 02:38:45;;;;;;;1.00;0.52;;;;;;;14.28;64.45;100844.22;4914173;29;20391;-76
2021/10/16 02:41:11;;;;;;;0.30;0.20;;;;;;;14.33;64.23;100848.88;4936757;29;20055;-76
2021/10/16 02:43:36;;;;;;;0.50;0.50;;;;;;;14.39;63.91;100861.50;4907242;29;20119;-76
2021/10/16 02:46:02;;;;;;;0.45;0.35;;;;;;;14.38;64.27;100859.84;4927487;29;20059;-75
2021/10/16 02:48:27;;;;;;;0.30;0.30;;;;;;;14.40;64.44;100862.34;4928138;29;20060;-76
2021/10/16 02:50:57;;;;;;;0.20;0.20;;;;;;;14.33;64.42;100846.13;4932398;29;20024;-71
2021/10/16 02:53:23;;;;;;;0.20;0.20;;;;;;;14.39;64.56;100853.25;4910574;29;20030;-73
2021/10/16 02:55:51;;;;;;;0.30;0.30;;;;;;;14.36;64.47;100851.06;4929402;29;20036;-72
2021/10/16 02:58:17;;;;;;;0.38;0.17;;;;;;;14.35;64.78;100849.41;4928912;29;20035;-73
2021/10/16 03:00:42;;;;;;;0.28;0.20;;;;;;;14.34;64.39;100853.28;4939300;29;20390;-69
2021/10/16 03:03:08;;;;;;;0.40;0.40;;;;;;;14.29;64.34;100843.13;4933549;29;20070;-71
2021/10/16 03:05:34;;;;;;;0.45;0.20;;;;;;;14.20;64.82;100835.72;4924251;29;20027;-70
2021/10/16 03:08:01;;;;;;;0.28;0.28;;;;;;;14.25;64.20;100843.94;4935984;29;20473;-71
2021/10/16 03:10:37;;;;;;;0.28;0.28;;;;;;;14.20;64.42;100830.22;4944631;29;20066;-72
2021/10/16 03:13:10;;;;;;;6.07;1.05;;;;;;;14.13;64.44;100825.84;4910445;29;20703;-72
2021/10/16 03:15:41;;;;;;;0.52;0.40;;;;;;;14.11;64.22;100832.72;4932536;29;20043;-69
2021/10/16 03:18:06;;;;;;;0.57;0.35;;;;;;;14.02;65.04;100840.72;4916947;29;20080;-70
2021/10/16 03:20:32;;;;;;;0.32;0.32;;;;;;;13.93;64.88;100843.22;4911876;29;20114;-72
2021/10/16 03:22:57;;;;;;;0.73;0.50;;;;;;;13.89;64.50;100846.81;4930147;29;20032;-72
2021/10/16 03:25:23;;;;;;;0.47;0.40;;;;;;;13.74;64.88;100832.00;4915877;29;20036;-72
2021/10/16 03:27:48;;;;;;;3.83;0.47;;;;;;;13.72;64.65;100841.63;4903057;29;20039;-72
2021/10/16 03:30:14;;;;;;;1.58;0.77;;;;;;;13.67;65.40;100844.34;4931933;29;20023;-72
2021/10/16 03:32:39;;;;;;;0.65;0.65;;;;;;;13.58;65.55;100836.69;4938908;29;20131;-71
2021/10/16 03:35:11;;;;;;;1.55;0.77;;;;;;;13.53;65.36;100838.59;4922703;29;20035;-71
2021/10/16 03:37:36;;;;;;;1.00;0.57;;;;;;;13.46;65.68;100816.91;4928202;29;20465;-69
2021/10/16 03:40:02;;;;;;;0.40;0.40;;;;;;;13.54;65.80;100829.28;4926289;29;20043;-71
2021/10/16 03:42:30;;;;;;;0.70;0.50;;;;;;;13.52;65.52;100828.72;4936362;29;20027;-72
2021/10/16 03:44:56;;;;;;;1.27;0.50;;;;;;;13.51;65.22;100818.84;4913833;29;20070;-73
2021/10/16 03:47:24;;;;;;;0.38;0.30;;;;;;;13.57;65.67;100829.53;4923297;29;20039;-72
2021/10/16 03:49:52;;;;;;;0.13;0.13;;;;;;;13.59;65.67;100818.25;4946529;29;20095;-71
2021/10/16 03:52:18;;;;;;;0.22;0.22;;;;;;;13.72;65.82;100827.88;4935217;29;20027;-71
2021/10/16 03:54:46;;;;;;;1.48;0.57;;;;;;;13.70;65.46;100816.34;4920711;29;20027;-72
2021/10/16 03:57:12;;;;;;;0.32;0.30;;;;;;;13.73;65.44;100815.78;4929457;29;20027;-72
2021/10/16 03:59:41;;;;;;;0.25;0.25;;;;;;;13.77;65.30;100819.63;4933749;29;20094;-73
2021/10/16 04:02:07;;;;;;;0.28;0.28;;;;;;;13.86;65.43;100825.38;4912248;29;20063;-73
2021/10/16 04:04:37;;;;;;;0.30;0.30;;;;;;;13.83;65.20;100823.16;4943238;29;20027;-72
2021/10/16 04:07:03;;;;;;;0.50;0.40;;;;;;;13.69;65.00;100812.75;4946814;29;20047;-72
2021/10/16 04:09:28;;;;;;;0.55;0.50;;;;;;;13.58;64.98;100811.13;4942826;29;20016;-72
2021/10/16 04:11:54;;;;;;;1.33;0.30;;;;;;;13.50;65.23;100806.19;4952023;29;20032;-70
2021/10/16 04:14:34;;;;;;;0.35;0.22;;;;;;;13.46;65.50;100805.09;4947203;29;20024;-71
2021/10/16 04:17:00;;;;;;;0.40;0.32;;;;;;;13.28;65.15;100788.84;4940829;29;20106;-72
2021/10/16 04:19:29;;;;;;;0.50;0.20;;;;;;;13.21;65.55;100798.47;4934772;29;20626;-72
2021/10/16 04:21:54;;;;;;;0.20;0.20;;;;;;;13.08;65.84;100777.88;4937032;29;20047;-72
2021/10/16 04:24:22;;;;;;;0.20;0.20;;;;;;;13.01;66.09;100786.41;4927734;29;20028;-71
2021/10/16 04:26:47;;;;;;;0.30;0.30;;;;;;;12.99;65.47;100802.31;4914749;29;20023;-73
2021/10/16 04:29:15;;;;;;;0.38;0.38;;;;;;;12.86;66.15;100798.16;4926380;29;20055;-73
2021/10/16 04:31:50;;;;;;;0.20;0.20;;;;;;;12.77;65.98;100793.50;4927292;29;20478;-73
2021/10/16 04:34:16;;;;;;;0.77;0.20;;;;;;;12.77;66.18;100804.47;4927697;29;20426;-73
2021/10/16 04:36:41;;;;;;;0.20;0.10;;;;;;;12.62;66.53;100775.91;4925051;29;20055;-73
2021/10/16 04:39:07;;;;;;;0.25;0.20;;;;;;;12.58;66.80;100791.25;4914921;29;20067;-73
2021/10/16 04:41:35;;;;;;;0.28;0.28;;;;;;;12.59;66.79;100792.91;4928914;29;20043;-74
2021/10/16 04:44:01;;;;;;;0.20;0.15;;;;;;;12.58;66.92;100796.75;4931090;29;20036;-73
2021/10/16 04:46:27;;;;;;;0.40;0.30;;;;;;;12.48;66.37;100785.75;4934445;29;20038;-72
2021/10/16 04:48:53;;;;;;;0.10;0.10;;;;;;;12.35;66.58;100781.59;4923020;29;20032;-73
2021/10/16 04:51:19;;;;;;;0.50;0.28;;;;;;;12.36;66.89;100792.28;4930107;29;20039;-73
2021/10/16 04:53:45;;;;;;;0.43;0.40;;;;;;;12.27;66.94;100779.38;4929520;29;20055;-74
2021/10/16 04:56:13;;;;;;;0.82;0.52;;;;;;;12.22;67.32;100785.66;4909285;29;20180;-73
2021/10/16 04:58:41;;;;;;;1.20;0.40;;;;;;;12.18;67.19;100792.78;4930675;29;20062;-73
2021/10/16 05:01:06;;;;;;;0.80;0.63;;;;;;;12.11;67.80;100776.56;4923000;29;20031;-73
2021/10/16 05:03:34;;;;;;;1.77;0.75;;;;;;;12.13;67.25;100768.09;4913649;29;20047;-73
2021/10/16 05:06:02;;;;;;;0.32;0.30;;;;;;;12.19;67.85;100788.94;4939286;29;20031;-73
2021/10/16 05:08:34;;;;;;;0.30;0.30;;;;;;;12.14;67.66;100772.47;4938357;29;20028;-72
2021/10/16 05:11:02;;;;;;;0.20;0.20;;;;;;;12.12;67.66;100780.13;4930575;29;20036;-74
2021/10/16 05:13:27;;;;;;;0.40;0.40;;;;;;;12.01;67.98;100777.34;4924789;29;20126;-72
2021/10/16 05:15:53;;;;;;;0.73;0.30;;;;;;;11.93;67.57;100775.13;4933207;29;20055;-71
2021/10/16 05:18:21;;;;;;;0.20;0.20;;;;;;;11.96;68.25;100785.56;4924060;29;20349;-72
2021/10/16 05:20:47;;;;;;;0.15;0.15;;;;;;;11.80;67.98;100768.19;4934210;29;20028;-72
2021/10/16 05:23:13;;;;;;;0.20;0.20;;;;;;;11.85;67.88;100789.28;4902623;29;20509;-70
2021/10/16 05:25:38;;;;;;;0.28;0.10;;;;;;;11.85;68.16;100792.84;4906245;29;20035;-72
2021/10/16 05:28:04;;;;;;;0.15;0.10;;;;;;;11.81;67.93;100790.91;4892855;29;20024;-73
2021/10/16 05:30:30;;;;;;;0.43;0.43;;;;;;;11.76;67.97;100788.16;4937320;29;20054;-73
2021/10/16 05:32:56;;;;;;;0.52;0.30;;;;;;;11.62;68.27;100780.41;4908328;29;20032;-72
2021/10/16 05:35:22;;;;;;;0.28;0.20;;;;;;;11.54;68.68;100783.63;4932038;29;20031;-73
2021/10/16 05:37:48;;;;;;;0.10;0.10;;;;;;;11.52;68.70;100774.84;4926532;29;20115;-73
2021/10/16 05:40:14;;;;;;;0.40;0.15;;;;;;;11.45;68.07;100777.00;4935051;29;20070;-73
2021/10/16 05:42:39;;;;;;;0.20;0.20;;;;;;;11.48;68.54;100795.66;4931311;29;20031;-72
2021/10/16 05:45:11;;;;;;;0.08;0.05;;;;;;;11.38;68.42;100790.91;4914313;29;20042;-74
2021/10/16 05:47:37;;;;;;;0.17;0.10;;;;;;;11.31;68.13;100780.19;4935178;29;20245;-72
2021/10/16 05:50:10;;;;;;;0.10;0.10;;;;;;;11.29;68.26;100787.84;4927636;29;20028;-73
2021/10/16 05:52:36;;;;;;;0.10;0.10;;;;;;;11.32;68.38;100792.78;4937959;29;20469;-72
2021/10/16 05:55:03;;;;;;;0.20;0.20;;;;;;;11.27;68.42;100794.66;4931453;29;20115;-71
2021/10/16 05:57:31;;;;;;;0.20;0.10;;;;;;;11.30;68.70;100794.97;4927626;29;20032;-73
2021/10/16 05:59:56;;;;;;;0.20;0.17;;;;;;;11.27;68.43;100790.03;4937094;29;20027;-74
2021/10/16 06:02:24;;;;;;;0.20;0.20;;;;;;;11.19;68.85;100785.03;4932621;29;20110;-72
2021/10/16 06:04:49;;;;;;;0.22;0.13;;;;;;;11.12;68.86;100789.88;4914440;29;20707;-72
2021/10/16 06:07:15;;;;;;;0.30;0.10;;;;;;;11.07;69.02;100789.81;4915920;29;20107;-73
2021/10/16 06:09:41;;;;;;;0.20;0.20;;;;;;;11.00;69.16;100779.13;4908585;29;20458;-72
2021/10/16 06:12:06;;;;;;;0.22;0.20;;;;;;;11.07;69.20;100796.16;4924693;29;20044;-72
2021/10/16 06:14:32;;;;;;;0.20;0.17;;;;;;;11.11;69.28;100799.16;4915574;29;20530;-75
2021/10/16 06:16:57;;;;;;;0.10;0.10;;;;;;;11.03;69.05;100784.06;4931879;29;20027;-76
2021/10/16 06:19:23;;;;;;;0.20;0.20;;;;;;;11.08;69.18;100802.44;4924740;29;20024;-74
2021/10/16 06:21:48;;;;;;;0.32;0.20;;;;;;;10.98;69.54;100786.75;4932800;29;20478;-77
2021/10/16 06:24:14;;;;;;;0.13;0.13;;;;;;;10.95;69.54;100785.38;4915987;29;20054;-75
2021/10/16 06:26:39;;;;;;;0.10;0.10;;;;;;;10.91;69.21;100781.50;4930013;29;20068;-74
2021/10/16 06:29:08;;;;;;;0.10;0.10;;;;;;;10.92;69.22;100783.16;4903221;29;20055;-76
2021/10/16 06:31:36;;;;;;;0.20;0.10;;;;;;;10.97;69.60;100785.94;4915464;29;20027;-72
2021/10/16 06:34:09;;;;;;;0.20;0.15;;;;;;;10.84;69.42;100775.41;4929885;29;20036;-73
2021/10/16 06:36:35;;;;;;;0.60;0.20;;;;;;;10.83;69.29;100768.28;4914686;29;20024;-72
2021/10/16 06:39:00;;;;;;;0.30;0.10;;;;;;;10.86;69.52;100778.69;4933261;29;20038;-73
2021/10/16 06:41:26;;;;;;;0.10;0.00;;;;;;;10.80;69.68;100775.09;4917153;29;20398;-72
2021/10/16 06:43:54;;;;;;;0.10;0.10;;;;;;;10.88;69.92;100795.69;4917900;29;20106;-72
2021/10/16 06:46:19;;;;;;;0.30;0.30;;;;;;;10.82;69.44;100800.28;4906982;29;20111;-70
2021/10/16 06:48:45;;;;;;;0.13;0.10;;;;;;;10.82;69.88;100788.53;4905556;29;20032;-71
2021/10/16 06:51:10;;;;;;;0.15;0.10;;;;;;;10.85;69.28;100798.97;4910772;29;20394;-72
2021/10/16 06:53:43;;;;;;;0.47;0.47;;;;;;;10.74;69.86;100791.72;4912427;29;20056;-75
2021/10/16 06:56:09;;;;;;;2.97;0.95;;;;;;;10.83;70.32;100818.38;4910196;29;20518;-74
2021/10/16 06:58:35;;;;;;;1.95;0.80;;;;;;;10.77;70.27;100807.63;4909376;29;20040;-76
2021/10/16 07:01:03;;;;;;;0.95;0.60;;;;;;;10.78;70.43;100809.28;4913222;29;20122;-72
2021/10/16 07:03:28;;;;;;;1.25;1.15;;;;;;;10.77;70.62;100802.16;4910246;29;20156;-73
2021/10/16 07:05:57;;;;;;;1.35;0.95;;;;;;;10.89;70.79;100813.75;4912516;29;20084;-72
2021/10/16 07:08:29;;;;;;;0.85;0.82;;;;;;;10.99;70.82;100810.28;4913624;29;20030;-73
2021/10/16 07:10:56;;;;;;;1.83;0.80;;;;;;;11.07;70.76;100806.25;4910502;29;20044;-74
2021/10/16 07:13:21;;;;;;;0.55;0.55;;;;;;;11.22;70.78;100805.56;4916213;29;20059;-75
2021/10/16 07:16:27;;;;;;;;;;;;;;;;;;;;;
2021/10/16 07:18:55;;;;;;;0.50;0.50;;;;;;;11.53;70.28;100810.22;4912078;29;20538;-71
2021/10/16 07:21:21;;;;;;;0.60;0.60;;;;;;;11.64;70.47;100821.22;4916867;29;20502;-73
2021/10/16 07:23:57;;;;;;;0.40;0.40;;;;;;;11.73;70.30;100810.59;4912712;29;20032;-72
2021/10/16 07:26:23;;;;;;;0.50;0.50;;;;;;;11.81;70.18;100807.34;4912030;29;20036;-71
2021/10/16 07:28:50;;;;;;;0.30;0.30;;;;;;;12.04;70.42;100820.66;4915347;29;20455;-68
2021/10/16 07:31:16;;;;;;;0.30;0.30;;;;;;;12.18;70.01;100825.69;4912628;29;20060;-69
2021/10/16 07:33:41;;;;;;;0.35;0.30;;;;;;;12.32;69.90;100828.75;4912467;29;20042;-70
2021/10/16 07:36:10;;;;;;;0.20;0.20;;;;;;;12.45;70.09;100835.66;4890169;29;20066;-70
2021/10/16 07:38:38;;;;;;;0.30;0.20;;;;;;;12.53;69.80;100844.19;4917156;29;20035;-70
2021/10/16 07:41:03;;;;;;;0.47;0.47;;;;;;;12.50;69.47;100832.91;4940629;28;20071;-69
2021/10/16 07:43:31;;;;;;;0.95;0.47;;;;;;;12.63;69.21;100837.94;4933872;29;20067;-69
2021/10/16 07:45:57;;;;;;;0.55;0.30;;;;;;;12.58;69.31;100826.94;4943610;29;20032;-70
2021/10/16 07:48:25;;;;;;;0.50;0.50;;;;;;;12.75;69.83;100840.44;4935052;29;20363;-68
2021/10/16 07:50:54;;;;;;;0.40;0.20;;;;;;;12.78;69.22;100828.09;4942405;29;20027;-70
2021/10/16 07:53:19;;;;;;;0.20;0.20;;;;;;;13.01;69.19;100845.94;4915385;29;20083;-71
2021/10/16 07:55:49;;;;;;;0.10;0.10;;;;;;;13.15;68.92;100849.81;4930335;29;20028;-70
2021/10/16 07:58:22;;;;;;;0.20;0.20;;;;;;;13.28;68.85;100842.97;4926409;29;20032;-70
2021/10/16 08:00:57;;;;;;;0.28;0.28;;;;;;;13.42;69.04;100833.13;4918768;29;20036;-69
2021/10/16 08:03:23;;;;;;;0.20;0.10;;;;;;;13.63;68.63;100849.59;4940183;29;20028;-71
2021/10/16 08:05:48;;;;;;;0.10;0.10;;;;;;;13.79;68.57;100856.72;4910480;29;20043;-70
2021/10/16 08:08:14;;;;;;;0.28;0.10;;;;;;;13.92;68.73;100857.25;4925122;29;20553;-71
2021/10/16 08:10:39;;;;;;;0.40;0.20;;;;;;;14.02;68.16;100857.22;4933827;29;20366;-70
2021/10/16 08:13:05;;;;;;;0.40;0.20;;;;;;;14.13;68.16;100853.34;4920309;28;20039;-69
2021/10/16 08:15:31;;;;;;;0.70;0.20;;;;;;;14.22;68.27;100855.50;4927726;29;20055;-70
2021/10/16 08:17:56;;;;;;;0.10;0.10;;;;;;;14.33;67.89;100848.88;4923391;29;20043;-69
2021/10/16 08:20:22;;;;;;;0.55;0.20;;;;;;;14.40;67.53;100852.16;4888551;29;20034;-69
2021/10/16 08:22:47;;;;;;;0.32;0.20;;;;;;;14.47;67.84;100854.59;4911704;29;20758;-70
2021/10/16 08:25:13;;;;;;;0.30;0.20;;;;;;;14.49;67.57;100855.97;4928282;29;20029;-69
2021/10/16 08:27:40;;;;;;;0.17;0.17;;;;;;;14.54;67.21;100852.34;4927370;29;20091;-69
2021/10/16 08:30:09;;;;;;;0.10;0.10;;;;;;;14.59;67.04;100854.28;4917283;29;20091;-68
2021/10/16 08:32:35;;;;;;;0.20;0.10;;;;;;;14.66;67.03;100863.09;4919714;29;20035;-70
2021/10/16 08:35:03;;;;;;;0.73;0.15;;;;;;;14.61;66.52;100841.06;4925952;29;20107;-70
2021/10/16 08:37:29;;;;;;;0.10;0.10;;;;;;;14.73;66.65;100840.75;4916990;29;20478;-69
2021/10/16 08:40:04;;;;;;;0.20;0.20;;;;;;;15.01;66.88;100855.75;4931168;29;20047;-70
2021/10/16 08:42:31;;;;;;;0.10;0.10;;;;;;;15.23;66.98;100854.47;4937115;29;20028;-70
2021/10/16 08:45:00;;;;;;;0.10;0.10;;;;;;;15.41;65.45;100859.28;4930236;29;20517;-70
2021/10/16 08:47:37;;;;;;;0.10;0.05;;;;;;;15.56;65.62;100871.31;4925116;29;20089;-71
2021/10/16 08:50:05;;;;;;;0.10;0.10;;;;;;;15.57;65.59;100867.44;4924853;29;20075;-70
2021/10/16 08:52:33;;;;;;;0.95;0.30;;;;;;;15.69;65.43;100857.66;4931140;29;20114;-69
2021/10/16 08:54:59;;;;;;;0.30;0.20;;;;;;;16.02;65.33;100862.63;4928902;29;20311;-69
2021/10/16 08:57:35;;;;;;;0.17;0.10;;;;;;;16.57;65.81;100863.09;4928042;29;20060;-71
2021/10/16 09:00:39;;;;;;;0.47;0.30;;;;;;;17.61;65.13;100857.69;4921678;29;20036;-70
2021/10/16 09:03:16;;;;;;;0.20;0.13;;;;;;;18.25;63.45;100870.94;4927415;29;20545;-68
2021/10/16 09:06:25;;;;;;;0.10;0.10;;;;;;;18.74;63.04;100864.97;4927384;29;20573;-72
2021/10/16 09:08:56;;;;;;;0.22;0.22;;;;;;;20.00;62.30;100868.88;4906990;29;20051;-72
2021/10/16 09:11:36;;;;;;;0.20;0.20;;;;;;;21.30;60.57;100861.19;4924365;29;20031;-72
2021/10/16 09:14:19;;;;;;;0.60;0.60;;;;;;;22.51;58.46;100875.94;4924701;29;20500;-72
2021/10/16 09:16:53;;;;;;;0.10;0.10;;;;;;;23.22;56.84;100879.06;4928125;29;20031;-69
2021/10/16 09:19:33;;;;;;;0.20;0.20;;;;;;;23.80;55.93;100880.00;4928616;29;20028;-73
2021/10/16 09:21:59;;;;;;;0.30;0.20;;;;;;;24.54;54.42;100868.91;4924509;29;20429;-72
2021/10/16 09:24:38;;;;;;;0.10;0.10;;;;;;;25.43;52.99;100880.41;4923693;29;20031;-72
2021/10/16 09:27:06;;;;;;;0.60;0.57;;;;;;;26.13;51.45;100873.50;4927454;29;20055;-73
2021/10/16 09:29:40;;;;;;;0.30;0.30;;;;;;;26.83;50.55;100869.19;4930123;29;20027;-75
2021/10/16 09:32:16;;;;;;;0.75;0.32;;;;;;;27.47;49.29;100877.38;4929076;29;20031;-72
2021/10/16 09:34:45;;;;;;;3.20;0.28;;;;;;;27.99;48.20;100873.16;4909498;29;20075;-71
2021/10/16 09:37:12;;;;;;;0.80;0.32;;;;;;;28.46;47.04;100887.16;4935132;29;20023;-73
2021/10/16 09:39:54;;;;;;;0.40;0.30;;;;;;;28.89;46.32;100868.13;4918164;29;20139;-73
2021/10/16 09:42:48;;;;;;;0.88;0.30;;;;;;;29.53;45.81;100864.53;4930269;29;20042;-75
2021/10/16 09:45:20;;;;;;;0.40;0.30;;;;;;;29.89;42.54;100881.81;4911003;29;20419;-76
2021/10/16 09:47:55;;;;;;;1.05;0.50;;;;;;;30.18;42.07;100879.25;4913691;29;20138;-70
2021/10/16 09:50:24;;;;;;;2.67;0.70;;;;;;;30.37;40.19;100876.16;4913978;29;20024;-73
2021/10/16 09:52:51;;;;;;;1.00;0.40;;;;;;;30.59;39.37;100870.72;4924186;29;20064;-73
2021/10/16 09:55:17;;;;;;;0.75;0.50;;;;;;;30.78;37.41;100884.56;4912357;29;20091;-72
2021/10/16 09:57:46;;;;;;;2.40;0.40;;;;;;;31.09;37.53;100885.16;4924445;29;20384;-73
2021/10/16 10:00:15;;;;;;;0.57;0.30;;;;;;;31.43;37.03;100870.75;4925338;29;20032;-72
2021/10/16 10:02:52;;;;;;;0.38;0.35;;;;;;;31.79;36.08;100876.50;4921545;29;20559;-71
2021/10/16 10:05:27;;;;;;;0.40;0.30;;;;;;;32.23;36.10;100882.22;4924796;29;20065;-74
2021/10/16 10:07:53;;;;;;;1.20;0.50;;;;;;;32.82;34.96;100879.72;4923884;29;20032;-74
2021/10/16 10:10:21;;;;;;;2.50;0.63;;;;;;;33.09;33.17;100875.59;4903603;29;20379;-72
2021/10/16 10:12:47;;;;;;;0.50;0.40;;;;;;;33.46;33.37;100877.88;4926774;29;20222;-71
2021/10/16 10:15:12;;;;;;;1.08;0.80;;;;;;;33.71;31.36;100865.59;4922055;29;20399;-70
2021/10/16 10:17:48;;;;;;;0.55;0.55;;;;;;;33.97;31.15;100866.25;4927896;29;20027;-71
2021/10/16 10:20:19;;;;;;;0.73;0.73;;;;;;;34.36;30.37;100884.97;4928793;29;20095;-70
2021/10/16 10:22:45;;;;;;;1.40;0.93;;;;;;;34.26;28.27;100884.66;4926211;29;20393;-69
2021/10/16 10:25:23;;;;;;;6.05;1.00;;;;;;;33.91;28.30;100874.41;4913374;29;20032;-71
2021/10/16 10:27:50;;;;;;;1.77;0.93;;;;;;;33.55;27.87;100883.91;4931130;29;20031;-70
2021/10/16 10:30:33;;;;;;;1.63;0.75;;;;;;;33.39;28.46;100877.91;4923876;29;20020;-70
2021/10/16 10:33:19;;;;;;;3.28;1.00;;;;;;;33.46;28.09;100865.75;4928591;29;20047;-71
2021/10/16 10:36:15;;;;;;;;;;;;;;;33.52;27.59;100869.75;4933467;29;20544;-69
2021/10/16 10:38:40;;;;;;;;;;;;;;;33.84;28.01;100868.78;4916574;29;20397;-71
2021/10/16 10:41:21;;;;;;;4.30;0.47;;;;;;;34.12;28.54;100858.41;4922065;29;19927;-69
2021/10/16 10:43:47;;;;;;;1.33;0.60;;;;;;;34.64;28.53;100861.19;4930467;29;20035;-71
2021/10/16 10:46:13;;;;;;;2.30;1.15;;;;;;;35.05;26.69;100859.53;4927783;29;20383;-75
2021/10/16 10:48:43;;;;;;;1.73;0.90;;;;;;;35.20;26.67;100858.09;4909855;29;20145;-69
2021/10/16 10:51:09;;;;;;;0.60;0.60;;;;;;;35.64;27.27;100856.28;4923420;29;20111;-71
2021/10/16 10:53:37;;;;;;;0.73;0.63;;;;;;;36.19;25.80;100861.94;4924486;29;20451;-70
2021/10/16 10:56:18;;;;;;;2.72;0.98;;;;;;;36.37;24.32;100846.59;4916394;29;20035;-70
2021/10/16 10:58:52;;;;;;;1.05;0.90;;;;;;;36.46;24.87;100859.06;4928416;29;20027;-70
2021/10/16 11:01:43;;;;;;;1.33;0.80;;;;;;;36.97;24.38;100856.00;4919708;29;20548;-70
2021/10/16 11:04:09;;;;;;;2.72;0.60;;;;;;;37.14;23.87;100856.88;4918834;29;20387;-70
2021/10/16 11:06:35;;;;;;;1.33;0.80;;;;;;;36.56;22.61;100857.22;4931143;29;20478;-71
2021/10/16 11:09:17;;;;;;;1.13;0.60;;;;;;;36.55;24.34;100858.47;4923260;29;20043;-69
2021/10/16 11:11:52;;;;;;;3.28;0.45;;;;;;;36.86;23.88;100855.47;4910662;29;20035;-71
2021/10/16 11:14:18;;;;;;;1.50;0.90;;;;;;;36.05;23.29;100850.81;4908600;29;20040;-70
2021/10/16 11:17:04;;;;;;;2.05;0.70;;;;;;;34.58;23.74;100846.66;4906939;29;20035;-70
2021/10/16 11:19:29;;;;;;;0.65;0.65;;;;;;;32.75;25.37;100851.44;4923908;29;20025;-70
2021/10/16 11:21:57;;;;;;;1.55;0.77;;;;;;;31.28;27.22;100836.00;4920329;29;20370;-70
2021/10/16 11:24:23;;;;;;;0.55;0.40;;;;;;;31.06;28.66;100834.28;4928189;29;20364;-70
2021/10/16 11:26:59;;;;;;;0.70;0.30;;;;;;;31.83;29.30;100832.09;4934573;28;20028;-71
2021/10/16 11:29:38;;;;;;;0.75;0.47;;;;;;;33.75;28.45;100826.72;4917958;29;20046;-68
2021/10/16 11:32:14;;;;;;;2.08;0.68;;;;;;;35.36;26.65;100828.28;4927398;29;20032;-71
2021/10/16 11:34:41;;;;;;;0.70;0.55;;;;;;;36.23;24.93;100828.53;4931002;29;20497;-69
2021/10/16 11:37:06;;;;;;;1.15;0.70;;;;;;;36.82;22.08;100823.38;4925013;29;20109;-69